Time;durP1;ratioP1;P1;durP2;ratioP2;P2;SDS_P1;SDS_P2;PMS_P1;PMS_P2;Temp;Humidity;BMP_temperature;BMP_pressure;BME280_temperature;BME280_humidity;BME280_pressure;Samples;Min_cycle;Max_cycle;Signal;HPM_P1;HPM_P2
2021/12/29 00:01:53;;;;;;;;;4.00;4.00;;;;;;;;5309840;27;8797;-72
2021/12/29 00:04:26;;;;;;;;;4.00;4.00;;;;;;;;5292076;27;8855;-73
2021/12/29 00:06:58;;;;;;;;;4.80;3.60;;;;;;;;5275235;27;8782;-77
2021/12/29 00:09:32;;;;;;;;;3.40;3.40;;;;;;;;5310457;27;8835;-75
2021/12/29 00:12:04;;;;;;;;;3.80;3.00;;;;;;;;5291806;27;8770;-75
2021/12/29 00:14:36;;;;;;;;;6.00;6.00;;;;;;;;5275126;27;8789;-74
2021/12/29 00:17:07;;;;;;;;;4.00;4.00;;;;;;;;5257751;27;8790;-75
2021/12/29 00:19:38;;;;;;;;;9.00;9.00;;;;;;;;5274906;27;8762;-75
2021/12/29 00:22:09;;;;;;;;;6.40;6.40;;;;;;;;5291792;27;10625;-76
2021/12/29 00:24:41;;;;;;;;;4.00;4.00;;;;;;;;5292142;27;8771;-75
2021/12/29 00:27:12;;;;;;;;;6.00;6.00;;;;;;;;5257686;27;8862;-75
2021/12/29 00:29:43;;;;;;;;;4.20;4.20;;;;;;;;5310410;27;8766;-75
2021/12/29 00:32:34;;;;;;;;;6.00;5.60;;;;;;;;5291565;27;8782;-75
2021/12/29 00:35:29;;;;;;;;;5.20;5.20;;;;;;;;5280207;27;8805;-77
2021/12/29 00:38:19;;;;;;;;;5.60;5.60;;;;;;;;5310662;27;9497;-80
2021/12/29 00:41:08;;;;;;;;;8.20;8.20;;;;;;;;5294793;27;8893;-79
2021/12/29 00:43:58;;;;;;;;;10.00;9.60;;;;;;;;5276795;27;8790;-81
2021/12/29 00:46:55;;;;;;;;;4.80;4.00;;;;;;;;5275586;27;8928;-80
2021/12/29 00:49:32;;;;;;;;;13.80;13.40;;;;;;;;5291481;27;8793;-80
2021/12/29 00:52:07;;;;;;;;;15.00;15.00;;;;;;;;5292178;27;8778;-82
2021/12/29 00:54:40;;;;;;;;;19.20;18.60;;;;;;;;5274354;27;8758;-82
2021/12/29 00:57:12;;;;;;;;;9.60;9.60;;;;;;;;5274423;27;8831;-81
2021/12/29 00:59:42;;;;;;;;;14.20;14.20;;;;;;;;5291547;27;8766;-81
2021/12/29 01:02:13;;;;;;;;;4.00;4.00;;;;;;;;5257917;27;8766;-82
2021/12/29 01:04:45;;;;;;;;;8.50;6.75;;;;;;;;5310115;27;8856;-81
2021/12/29 01:07:35;;;;;;;;;11.40;11.40;;;;;;;;5294082;27;11370;-80
2021/12/29 01:10:06;;;;;;;;;6.40;6.40;;;;;;;;5274225;27;8790;-81
2021/12/29 01:12:38;;;;;;;;;7.40;7.00;;;;;;;;5275031;27;8794;-80
2021/12/29 01:15:14;;;;;;;;;7.80;7.00;;;;;;;;5278572;27;9471;-80
2021/12/29 01:17:46;;;;;;;;;5.80;5.80;;;;;;;;5262016;27;8754;-78
2021/12/29 01:20:17;;;;;;;;;11.60;11.60;;;;;;;;5278508;27;9485;-82
2021/12/29 01:22:49;;;;;;;;;6.20;6.20;;;;;;;;5313636;27;8764;-82
2021/12/29 01:25:21;;;;;;;;;8.20;8.20;;;;;;;;5313557;27;8858;-82
2021/12/29 01:27:53;;;;;;;;;9.60;9.00;;;;;;;;5295199;27;8762;-82
2021/12/29 01:30:25;;;;;;;;;7.80;7.80;;;;;;;;5278821;27;8794;-83
2021/12/29 01:32:56;;;;;;;;;7.40;7.40;;;;;;;;5278204;27;8779;-82
2021/12/29 01:35:27;;;;;;;;;5.80;5.80;;;;;;;;5295040;27;8944;-82
2021/12/29 01:37:59;;;;;;;;;9.00;9.00;;;;;;;;5295064;27;8789;-82
2021/12/29 01:40:31;;;;;;;;;9.80;9.00;;;;;;;;5294794;27;8774;-75
2021/12/29 01:43:04;;;;;;;;;8.20;8.20;;;;;;;;5278687;27;8774;-75
2021/12/29 01:45:36;;;;;;;;;5.60;4.00;;;;;;;;5278060;27;8798;-76
2021/12/29 01:48:07;;;;;;;;;7.40;7.40;;;;;;;;5277425;27;8956;-76
2021/12/29 01:50:40;;;;;;;;;8.20;7.00;;;;;;;;5294928;27;8792;-76
2021/12/29 01:53:21;;;;;;;;;6.60;6.60;;;;;;;;5261151;27;8766;-76
2021/12/29 01:55:52;;;;;;;;;7.00;7.00;;;;;;;;5278184;27;8762;-76
2021/12/29 01:58:24;;;;;;;;;12.80;12.80;;;;;;;;5277787;27;8867;-76
2021/12/29 02:00:57;;;;;;;;;12.20;12.20;;;;;;;;5294745;27;8835;-76
2021/12/29 02:03:28;;;;;;;;;9.60;9.60;;;;;;;;5277842;27;8851;-76
2021/12/29 02:05:59;;;;;;;;;12.50;12.50;;;;;;;;5295229;27;8782;-75
2021/12/29 02:08:32;;;;;;;;;14.80;14.40;;;;;;;;5294745;27;9940;-75
2021/12/29 02:11:06;;;;;;;;;15.00;13.60;;;;;;;;5313334;27;8809;-76
2021/12/29 02:13:57;;;;;;;;;24.00;23.00;;;;;;;;5280308;27;8767;-76
2021/12/29 02:16:47;;;;;;;;;16.00;16.00;;;;;;;;5312612;27;8810;-77
2021/12/29 02:19:18;;;;;;;;;24.00;24.00;;;;;;;;5277791;27;8791;-77
2021/12/29 02:22:36;;;;;;;;;31.80;30.20;;;;;;;;5277678;27;8793;-77
2021/12/29 02:24:53;;;;;;;;;14.40;13.60;;;;;;;;5310198;27;8813;-77
2021/12/29 02:27:24;;;;;;;;;21.40;20.80;;;;;;;;5277179;27;9565;-77
2021/12/29 02:29:55;;;;;;;;;21.20;21.20;;;;;;;;5294218;27;9326;-76
2021/12/29 02:32:27;;;;;;;;;26.40;26.00;;;;;;;;5294036;27;8914;-77
2021/12/29 02:34:58;;;;;;;;;25.40;24.80;;;;;;;;5294037;27;8794;-77
2021/12/29 02:37:29;;;;;;;;;10.80;10.40;;;;;;;;5293758;27;8792;-77
2021/12/29 02:40:00;;;;;;;;;11.60;11.60;;;;;;;;5276611;27;8782;-78
2021/12/29 02:42:39;;;;;;;;;13.80;13.80;;;;;;;;5294450;27;8786;-79
2021/12/29 02:45:13;;;;;;;;;15.80;15.40;;;;;;;;5277160;27;8802;-79
2021/12/29 02:48:04;;;;;;;;;26.00;25.00;;;;;;;;5278984;27;8798;-79
2021/12/29 02:50:35;;;;;;;;;46.00;38.75;;;;;;;;5259677;27;8810;-78
2021/12/29 02:53:06;;;;;;;;;48.25;43.50;;;;;;;;5276494;27;8793;-78
2021/12/29 02:55:56;;;;;;;;;30.50;24.75;;;;;;;;5279180;27;8778;-78
2021/12/29 02:58:28;;;;;;;;;27.25;25.50;;;;;;;;5276443;27;8790;-78
2021/12/29 03:01:00;;;;;;;;;17.60;17.60;;;;;;;;5259784;27;8778;-78
2021/12/29 03:03:33;;;;;;;;;15.00;15.00;;;;;;;;5262156;27;8766;-78
2021/12/29 03:06:08;;;;;;;;;15.40;14.20;;;;;;;;5278408;27;8793;-78
2021/12/29 03:08:58;;;;;;;;;14.60;14.60;;;;;;;;5295738;27;8903;-79
2021/12/29 03:11:29;;;;;;;;;4.00;4.00;;;;;;;;5315684;27;8786;-81
2021/12/29 03:14:00;;;;;;;;;11.80;11.80;;;;;;;;5306008;27;8758;-80
2021/12/29 03:16:33;;;;;;;;;10.80;9.60;;;;;;;;5285775;27;8762;-81
2021/12/29 03:19:05;;;;;;;;;16.40;16.40;;;;;;;;5297577;27;8781;-81
2021/12/29 03:21:36;;;;;;;;;25.40;24.80;;;;;;;;5285917;27;8766;-81
2021/12/29 03:24:26;;;;;;;;;28.00;27.50;;;;;;;;5288244;27;8793;-81
2021/12/29 03:26:57;;;;;;;;;44.25;40.50;;;;;;;;5261293;27;8832;-77
2021/12/29 03:29:28;;;;;;;;;33.33;29.33;;;;;;;;5258874;27;8762;-77
2021/12/29 03:32:06;;;;;;;;;11.60;10.40;;;;;;;;5276444;27;8870;-76
2021/12/29 03:34:37;;;;;;;;;19.20;19.20;;;;;;;;5276149;27;8887;-76
2021/12/29 03:37:08;;;;;;;;;23.50;21.00;;;;;;;;5274970;27;8798;-77
2021/12/29 03:39:39;;;;;;;;;36.00;33.50;;;;;;;;5258743;27;8774;-78
2021/12/29 03:42:28;;;;;;;;;25.00;25.00;;;;;;;;5278551;27;8794;-83
2021/12/29 03:44:59;;;;;;;;;49.50;38.25;;;;;;;;5275493;27;8920;-79
2021/12/29 03:47:32;;;;;;;;;27.00;25.60;;;;;;;;5292498;27;8918;-80
2021/12/29 03:50:04;;;;;;;;;24.60;24.60;;;;;;;;5275610;27;8834;-77
2021/12/29 03:52:35;;;;;;;;;27.40;27.00;;;;;;;;5259078;27;9476;-78
2021/12/29 03:55:07;;;;;;;;;17.80;17.80;;;;;;;;5298074;27;8774;-78
2021/12/29 03:57:39;;;;;;;;;9.00;9.00;;;;;;;;5285415;27;8778;-78
2021/12/29 04:00:13;;;;;;;;;14.80;10.60;;;;;;;;5283791;27;8762;-78
2021/12/29 04:02:44;;;;;;;;;15.80;15.60;;;;;;;;5275528;27;8857;-80
2021/12/29 04:05:18;;;;;;;;;16.80;16.80;;;;;;;;5275055;27;8762;-84
2021/12/29 04:07:50;;;;;;;;;21.80;21.40;;;;;;;;5258594;27;8787;-83
2021/12/29 04:10:21;;;;;;;;;17.00;15.40;;;;;;;;5258431;27;8801;-83
2021/12/29 04:12:52;;;;;;;;;17.00;17.00;;;;;;;;5291928;27;9661;-83
2021/12/29 04:15:41;;;;;;;;;20.20;19.80;;;;;;;;5292074;27;11406;-82
2021/12/29 04:18:25;;;;;;;;;17.20;16.00;;;;;;;;5274560;27;8782;-78
2021/12/29 04:20:59;;;;;;;;;22.20;21.00;;;;;;;;5275190;27;9481;-78
2021/12/29 04:23:34;;;;;;;;;25.00;23.60;;;;;;;;5291700;27;8771;-78
2021/12/29 04:26:07;;;;;;;;;25.60;24.20;;;;;;;;5258223;27;8770;-82
2021/12/29 04:28:38;;;;;;;;;20.80;20.80;;;;;;;;5291499;27;8766;-83
2021/12/29 04:31:12;;;;;;;;;15.40;14.40;;;;;;;;5291110;27;8905;-84
2021/12/29 04:33:43;;;;;;;;;18.20;18.20;;;;;;;;5274730;27;8766;-82
2021/12/29 04:36:14;;;;;;;;;15.80;15.80;;;;;;;;5257778;27;8786;-83
2021/12/29 04:38:45;;;;;;;;;15.60;15.60;;;;;;;;5309976;27;8874;-81
2021/12/29 04:41:16;;;;;;;;;13.50;13.00;;;;;;;;5292035;27;8794;-76
2021/12/29 04:43:47;;;;;;;;;16.50;16.00;;;;;;;;5309979;27;11419;-79
2021/12/29 04:51:05;;;;;;;;;25.40;24.20;;;;;;;;5288242;28;8792;-80
2021/12/29 04:53:36;;;;;;;;;34.20;32.60;;;;;;;;5268870;28;8780;-80
2021/12/29 04:56:07;;;;;;;;;27.60;26.80;;;;;;;;5270416;28;8793;-80
2021/12/29 04:58:38;;;;;;;;;28.80;28.40;;;;;;;;5236994;28;8780;-81
2021/12/29 05:01:10;;;;;;;;;17.00;16.40;;;;;;;;5270615;28;8780;-81
2021/12/29 05:03:43;;;;;;;;;30.60;27.20;;;;;;;;5253138;28;8768;-83
2021/12/29 05:09:04;;;;;;;;;26.40;25.40;;;;;;;;5270393;28;8887;-82
2021/12/29 05:11:35;;;;;;;;;27.50;25.25;;;;;;;;5236420;28;9000;-71
2021/12/29 05:14:24;;;;;;;;;34.80;32.20;;;;;;;;5288171;28;8753;-76
2021/12/29 05:16:54;;;;;;;;;24.75;22.75;;;;;;;;5269902;28;8814;-76
2021/12/29 05:19:25;;;;;;;;;15.25;15.25;;;;;;;;5288277;28;11468;-77
2021/12/29 05:21:56;;;;;;;;;19.20;17.40;;;;;;;;5270331;28;8788;-76
2021/12/29 05:24:27;;;;;;;;;15.60;15.40;;;;;;;;5253055;28;8819;-76
2021/12/29 05:27:17;;;;;;;;;22.40;21.20;;;;;;;;5272983;28;8886;-77
2021/12/29 05:34:11;;;;;;;;;9.80;9.80;;;;;;;;5287911;28;8693;-73
2021/12/29 05:36:42;;;;;;;;;19.00;19.00;;;;;;;;5269656;28;8756;-71
2021/12/29 05:39:32;;;;;;;;;3.00;3.00;;;;;;;;5269916;28;9435;-72
2021/12/29 05:42:03;;;;;;;;;19.00;19.00;;;;;;;;5287620;28;8841;-74
2021/12/29 05:44:33;;;;;;;;;27.40;27.20;;;;;;;;5252802;28;9491;-74
2021/12/29 05:51:29;;;;;;;;;12.60;11.40;;;;;;;;5308769;27;11456;-76
2021/12/29 05:54:00;;;;;;;;;23.00;20.50;;;;;;;;5309155;27;8774;-76
2021/12/29 05:56:31;;;;;;;;;21.00;19.50;;;;;;;;5274345;27;12131;-77
2021/12/29 05:59:02;;;;;;;;;19.00;16.00;;;;;;;;5309279;27;8766;-78
2021/12/29 06:01:33;;;;;;;;;22.00;20.40;;;;;;;;5294090;27;8831;-76
2021/12/29 06:04:04;;;;;;;;;23.80;23.40;;;;;;;;5277582;27;8770;-80
2021/12/29 06:06:35;;;;;;;;;17.40;17.40;;;;;;;;5277492;27;8762;-80
2021/12/29 06:09:07;;;;;;;;;19.80;19.40;;;;;;;;5268985;28;8764;-79
2021/12/29 06:11:56;;;;;;;;;19.60;19.60;;;;;;;;5285507;28;8874;-77
2021/12/29 06:14:27;;;;;;;;;19.50;18.50;;;;;;;;5311998;27;8786;-76
2021/12/29 06:16:58;;;;;;;;;21.50;21.50;;;;;;;;5278089;27;9524;-77
2021/12/29 06:19:30;;;;;;;;;22.00;21.50;;;;;;;;5277655;27;8782;-77
2021/12/29 06:22:20;;;;;;;;;26.60;26.40;;;;;;;;5312713;27;8770;-76
2021/12/29 06:24:52;;;;;;;;;45.00;39.67;;;;;;;;5277414;27;8802;-76
2021/12/29 06:27:24;;;;;;;;;36.00;31.80;;;;;;;;5312631;27;8778;-77
2021/12/29 06:29:55;;;;;;;;;26.80;24.40;;;;;;;;5294216;27;8843;-78
2021/12/29 06:32:26;;;;;;;;;27.75;27.50;;;;;;;;5312148;27;9477;-76
2021/12/29 06:34:57;;;;;;;;;25.80;25.00;;;;;;;;5293695;27;8782;-75
2021/12/29 06:37:28;;;;;;;;;24.80;24.60;;;;;;;;5294888;27;8782;-76
2021/12/29 06:39:59;;;;;;;;;75.67;61.67;;;;;;;;5260492;27;8770;-75
2021/12/29 06:42:30;;;;;;;;;59.50;52.25;;;;;;;;5276859;27;8880;-77
2021/12/29 06:45:01;;;;;;;;;16.50;15.50;;;;;;;;5276908;27;9623;-77
2021/12/29 06:47:32;;;;;;;;;21.40;20.00;;;;;;;;5312308;27;8781;-78
2021/12/29 06:50:04;;;;;;;;;22.00;22.00;;;;;;;;5293201;27;8822;-78
2021/12/29 06:52:35;;;;;;;;;17.00;17.00;;;;;;;;5293738;27;8831;-78
2021/12/29 06:55:07;;;;;;;;;20.40;20.40;;;;;;;;5293509;27;8786;-77
2021/12/29 06:57:38;;;;;;;;;31.40;28.80;;;;;;;;5293532;27;8790;-78
2021/12/29 07:00:09;;;;;;;;;25.25;23.75;;;;;;;;5293146;27;8774;-77
2021/12/29 07:02:42;;;;;;;;;22.00;21.40;;;;;;;;5311317;27;11446;-77
2021/12/29 07:05:31;;;;;;;;;19.00;18.00;;;;;;;;5312956;27;8758;-73
2021/12/29 07:08:02;;;;;;;;;21.60;21.60;;;;;;;;5293691;27;9425;-77
2021/12/29 07:10:33;;;;;;;;;16.00;15.40;;;;;;;;5293433;27;8802;-81
2021/12/29 07:13:04;;;;;;;;;21.20;20.80;;;;;;;;5276764;27;9524;-81
2021/12/29 07:15:35;;;;;;;;;28.75;28.75;;;;;;;;5259743;27;8770;-81
2021/12/29 07:18:25;;;;;;;;;16.80;16.80;;;;;;;;5311598;27;11387;-81
2021/12/29 07:20:56;;;;;;;;;18.75;17.00;;;;;;;;5293394;27;9499;-81
2021/12/29 07:23:27;;;;;;;;;21.20;18.80;;;;;;;;5274424;27;12214;-78
2021/12/29 07:25:59;;;;;;;;;20.80;19.40;;;;;;;;5292822;27;8800;-79
2021/12/29 07:28:29;;;;;;;;;21.75;19.75;;;;;;;;5292705;27;8766;-79
2021/12/29 07:31:00;;;;;;;;;10.40;10.40;;;;;;;;5293115;27;9619;-76
2021/12/29 07:33:50;;;;;;;;;14.00;14.00;;;;;;;;5293086;27;8811;-78
2021/12/29 07:36:21;;;;;;;;;17.00;15.75;;;;;;;;5292963;27;8770;-81
2021/12/29 07:38:52;;;;;;;;;25.20;24.40;;;;;;;;5271395;28;12176;-79
2021/12/29 07:41:23;;;;;;;;;22.60;21.20;;;;;;;;5272198;27;8780;-78
2021/12/29 07:43:55;;;;;;;;;20.50;20.50;;;;;;;;5275639;27;9509;-79
2021/12/29 07:46:32;;;;;;;;;12.40;12.40;;;;;;;;5310958;27;8843;-77
2021/12/29 07:49:03;;;;;;;;;16.80;15.20;;;;;;;;5254370;28;9497;-80
2021/12/29 07:51:35;;;;;;;;;12.80;12.40;;;;;;;;5271648;28;8814;-82
2021/12/29 07:54:07;;;;;;;;;21.40;21.40;;;;;;;;5288176;28;8778;-79
2021/12/29 08:01:01;;;;;;;;;26.40;26.00;;;;;;;;5300747;27;8809;-80
2021/12/29 08:03:51;;;;;;;;;16.00;16.00;;;;;;;;5278593;27;9501;-80
2021/12/29 08:06:22;;;;;;;;;14.00;14.00;;;;;;;;5275662;27;8771;-80
2021/12/29 08:08:53;;;;;;;;;16.50;16.50;;;;;;;;5258581;27;11434;-80
2021/12/29 08:11:24;;;;;;;;;21.80;18.80;;;;;;;;5258166;27;10533;-80
2021/12/29 08:13:55;;;;;;;;;16.00;16.00;;;;;;;;5275767;27;8831;-81
2021/12/29 08:16:26;;;;;;;;;17.25;16.50;;;;;;;;5258514;27;8770;-80
2021/12/29 08:18:57;;;;;;;;;19.25;18.50;;;;;;;;5311167;27;8754;-80
2021/12/29 08:21:28;;;;;;;;;21.25;20.00;;;;;;;;5259238;27;8774;-80
2021/12/29 08:23:59;;;;;;;;;20.00;18.60;;;;;;;;5311085;27;8766;-80
2021/12/29 08:26:30;;;;;;;;;23.00;23.00;;;;;;;;5295863;27;8874;-80
2021/12/29 08:29:01;;;;;;;;;28.00;26.50;;;;;;;;5292238;27;8782;-73
2021/12/29 08:31:33;;;;;;;;;25.00;24.40;;;;;;;;5310921;27;8797;-68
2021/12/29 08:34:22;;;;;;;;;15.60;15.60;;;;;;;;5295259;27;8754;-76
2021/12/29 08:36:53;;;;;;;;;22.40;21.60;;;;;;;;5257693;27;8827;-77
2021/12/29 08:39:25;;;;;;;;;16.50;16.00;;;;;;;;5274750;27;8804;-73
2021/12/29 08:41:56;;;;;;;;;23.40;22.40;;;;;;;;5310367;27;8790;-80
2021/12/29 08:44:27;;;;;;;;;20.50;18.75;;;;;;;;5292252;27;8815;-80
2021/12/29 08:46:57;;;;;;;;;25.50;25.50;;;;;;;;5275221;27;8767;-82
2021/12/29 08:49:28;;;;;;;;;27.75;26.50;;;;;;;;5256330;27;8806;-83
2021/12/29 08:51:59;;;;;;;;;21.50;21.50;;;;;;;;5275842;27;8802;-84
2021/12/29 08:54:30;;;;;;;;;6.75;5.75;;;;;;;;5274794;27;11440;-84
2021/12/29 08:57:02;;;;;;;;;16.50;16.50;;;;;;;;5275363;27;8762;-82
2021/12/29 08:59:33;;;;;;;;;22.40;21.00;;;;;;;;5274889;27;10857;-80
2021/12/29 09:02:04;;;;;;;;;9.80;6.60;;;;;;;;5274907;27;8846;-79
2021/12/29 09:04:35;;;;;;;;;5.20;5.20;;;;;;;;5310798;27;8850;-80
2021/12/29 09:07:06;;;;;;;;;15.40;14.60;;;;;;;;5300793;27;8758;-79
2021/12/29 09:09:55;;;;;;;;;26.20;23.40;;;;;;;;5285415;27;8774;-79
2021/12/29 09:12:26;;;;;;;;;29.00;26.50;;;;;;;;5300964;27;8771;-79
2021/12/29 09:14:57;;;;;;;;;21.80;15.80;;;;;;;;5301434;27;8770;-78
2021/12/29 09:17:28;;;;;;;;;17.00;17.00;;;;;;;;5296958;27;8794;-79
2021/12/29 09:20:00;;;;;;;;;13.25;12.50;;;;;;;;5294640;27;11399;-78
2021/12/29 09:22:31;;;;;;;;;19.60;18.60;;;;;;;;5277095;27;8846;-78
2021/12/29 09:25:02;;;;;;;;;25.80;25.40;;;;;;;;5295921;27;8779;-79
2021/12/29 09:27:34;;;;;;;;;29.20;28.00;;;;;;;;5310244;27;8762;-79
2021/12/29 09:30:05;;;;;;;;;21.80;21.00;;;;;;;;5311780;27;9516;-79
2021/12/29 09:32:36;;;;;;;;;17.60;15.20;;;;;;;;5309068;27;8871;-80
2021/12/29 09:35:07;;;;;;;;;42.60;36.20;;;;;;;;5315800;27;8870;-80
2021/12/29 09:37:39;;;;;;;;;26.80;24.00;;;;;;;;5303750;27;8774;-80
2021/12/29 09:40:10;;;;;;;;;26.40;22.80;;;;;;;;5336873;27;8770;-82
2021/12/29 09:42:41;;;;;;;;;14.80;14.20;;;;;;;;5317190;27;8758;-77
2021/12/29 09:45:13;;;;;;;;;22.50;21.50;;;;;;;;5288706;27;8802;-78
2021/12/29 09:47:44;;;;;;;;;32.80;30.80;;;;;;;;5285402;27;9037;-76
2021/12/29 09:50:16;;;;;;;;;26.50;25.25;;;;;;;;5318367;27;8806;-74
2021/12/29 09:52:47;;;;;;;;;24.20;24.20;;;;;;;;5290230;27;9405;-80
2021/12/29 09:55:19;;;;;;;;;26.20;25.40;;;;;;;;5278708;27;8905;-80
2021/12/29 09:57:52;;;;;;;;;19.40;17.00;;;;;;;;5315576;27;8778;-75
2021/12/29 10:00:44;;;;;;;;;23.00;20.00;;;;;;;;5286006;27;8928;-77
2021/12/29 10:03:17;;;;;;;;;14.20;14.00;;;;;;;;5268436;27;9275;-77
2021/12/29 10:05:50;;;;;;;;;16.00;15.20;;;;;;;;5320014;27;8774;-78
2021/12/29 10:08:23;;;;;;;;;14.00;13.60;;;;;;;;5302206;27;8789;-75
2021/12/29 10:10:56;;;;;;;;;19.80;17.40;;;;;;;;5298268;27;8786;-76
2021/12/29 10:13:28;;;;;;;;;19.00;18.00;;;;;;;;5300885;27;8810;-80
2021/12/29 10:16:04;;;;;;;;;12.80;12.80;;;;;;;;5283864;27;8802;-75
2021/12/29 10:18:37;;;;;;;;;9.40;8.20;;;;;;;;5313188;27;8743;-76
2021/12/29 10:21:09;;;;;;;;;5.60;4.80;;;;;;;;5295036;27;8794;-74
2021/12/29 10:23:47;;;;;;;;;14.80;14.40;;;;;;;;5277337;27;8774;-77
2021/12/29 10:30:42;;;;;;;;;12.80;12.40;;;;;;;;5312574;27;9307;-76
2021/12/29 10:33:13;;;;;;;;;12.00;12.00;;;;;;;;5313270;27;8766;-76
2021/12/29 10:35:43;;;;;;;;;14.40;13.00;;;;;;;;5293819;27;8843;-74
2021/12/29 10:38:16;;;;;;;;;17.75;14.25;;;;;;;;5312067;27;8754;-83
2021/12/29 10:40:48;;;;;;;;;15.20;15.20;;;;;;;;5294525;27;8813;-79
2021/12/29 10:43:19;;;;;;;;;14.20;12.40;;;;;;;;5276829;27;8806;-81
2021/12/29 10:46:19;;;;;;;;;22.80;22.80;;;;;;;;5312081;27;8798;-79
2021/12/29 10:48:51;;;;;;;;;22.00;22.00;;;;;;;;5276951;27;8912;-80
2021/12/29 10:51:32;;;;;;;;;15.80;15.80;;;;;;;;5276699;27;8818;-79
2021/12/29 10:54:14;;;;;;;;;8.20;8.20;;;;;;;;5280373;27;8777;-81
2021/12/29 10:57:00;;;;;;;;;14.20;14.20;;;;;;;;5296748;27;8790;-78
2021/12/29 10:59:33;;;;;;;;;14.20;12.80;;;;;;;;5276345;27;8790;-80
2021/12/29 11:02:05;;;;;;;;;15.60;15.00;;;;;;;;5293483;27;8789;-79
2021/12/29 11:04:36;;;;;;;;;15.80;15.40;;;;;;;;5276238;27;8874;-79
2021/12/29 11:07:08;;;;;;;;;14.20;14.20;;;;;;;;5276560;27;8801;-75
2021/12/29 11:09:39;;;;;;;;;19.00;18.40;;;;;;;;5293421;27;8810;-77
2021/12/29 11:12:15;;;;;;;;;18.75;18.75;;;;;;;;5276041;27;8822;-76
2021/12/29 11:14:52;;;;;;;;;12.60;12.60;;;;;;;;5293177;27;9437;-76
2021/12/29 11:17:24;;;;;;;;;13.80;13.80;;;;;;;;5276020;27;8793;-76
2021/12/29 11:19:59;;;;;;;;;6.80;6.80;;;;;;;;5312151;27;8831;-78
2021/12/29 11:22:30;;;;;;;;;15.80;15.80;;;;;;;;5292724;27;8792;-77
2021/12/29 11:25:03;;;;;;;;;15.00;15.00;;;;;;;;5275627;27;8778;-78
2021/12/29 11:27:35;;;;;;;;;17.20;17.20;;;;;;;;5276479;27;8770;-81
2021/12/29 11:30:10;;;;;;;;;9.60;9.60;;;;;;;;5275777;27;8778;-78
2021/12/29 11:32:42;;;;;;;;;21.40;19.20;;;;;;;;5276025;27;8770;-78
2021/12/29 11:35:16;;;;;;;;;21.60;19.40;;;;;;;;5275907;27;8766;-77
2021/12/29 11:37:52;;;;;;;;;16.40;15.60;;;;;;;;5258762;27;8766;-75
2021/12/29 11:40:28;;;;;;;;;13.60;13.60;;;;;;;;5275795;27;8775;-75
2021/12/29 11:42:59;;;;;;;;;10.40;10.00;;;;;;;;5292467;27;8945;-78
2021/12/29 11:45:30;;;;;;;;;8.50;8.50;;;;;;;;5275587;27;8904;-78
2021/12/29 11:48:01;;;;;;;;;9.75;9.75;;;;;;;;5292264;27;8766;-78
2021/12/29 11:50:34;;;;;;;;;9.50;9.50;;;;;;;;5275309;27;8960;-78
2021/12/29 11:53:09;;;;;;;;;14.60;14.60;;;;;;;;5292685;27;8777;-78
2021/12/29 11:55:44;;;;;;;;;15.60;15.60;;;;;;;;5292231;27;8798;-78
2021/12/29 11:58:41;;;;;;;;;14.20;14.20;;;;;;;;5277217;27;8854;-78
2021/12/29 12:01:14;;;;;;;;;61.00;52.75;;;;;;;;5258226;27;8979;-79
2021/12/29 12:03:51;;;;;;;;;13.00;13.00;;;;;;;;5292666;27;8774;-79
2021/12/29 12:06:27;;;;;;;;;6.00;6.00;;;;;;;;5275314;27;9363;-77
2021/12/29 12:09:18;;;;;;;;;11.20;11.20;;;;;;;;5275420;27;8770;-77
2021/12/29 12:11:49;;;;;;;;;15.00;13.40;;;;;;;;5274909;27;8810;-76
2021/12/29 12:14:22;;;;;;;;;16.00;16.00;;;;;;;;5291806;27;8782;-76
2021/12/29 12:16:53;;;;;;;;;25.20;21.40;;;;;;;;5292190;27;8934;-78
2021/12/29 12:19:25;;;;;;;;;16.00;15.50;;;;;;;;5292142;27;8881;-76
2021/12/29 12:22:22;;;;;;;;;10.00;9.00;;;;;;;;5275216;27;8759;-76
2021/12/29 12:25:01;;;;;;;;;26.80;26.20;;;;;;;;5287598;27;8759;-77
2021/12/29 12:27:38;;;;;;;;;18.80;16.40;;;;;;;;5274926;27;8781;-80
2021/12/29 12:30:38;;;;;;;;;32.20;30.40;;;;;;;;5277818;27;8887;-78
2021/12/29 12:33:10;;;;;;;;;15.20;11.60;;;;;;;;5291750;27;8790;-80
2021/12/29 12:35:43;;;;;;;;;21.40;17.80;;;;;;;;5274629;27;8774;-80
2021/12/29 12:38:17;;;;;;;;;31.40;28.00;;;;;;;;5275815;27;8770;-76
2021/12/29 12:41:08;;;;;;;;;13.20;13.20;;;;;;;;5274578;27;9443;-77
2021/12/29 12:44:00;;;;;;;;;7.00;7.00;;;;;;;;5277017;27;8794;-77
2021/12/29 12:46:31;;;;;;;;;15.20;13.40;;;;;;;;5291026;27;8786;-79
2021/12/29 12:49:11;;;;;;;;;19.00;18.00;;;;;;;;5257552;27;8866;-79
2021/12/29 12:51:54;;;;;;;;;25.00;21.80;;;;;;;;5257767;27;8872;-78
2021/12/29 12:54:27;;;;;;;;;16.80;16.00;;;;;;;;5291328;27;8782;-76
2021/12/29 12:56:59;;;;;;;;;10.40;10.40;;;;;;;;5258691;27;8782;-78
2021/12/29 12:59:35;;;;;;;;;15.00;13.00;;;;;;;;5274143;27;8782;-76
2021/12/29 13:02:17;;;;;;;;;4.40;4.00;;;;;;;;5274812;27;8804;-76
2021/12/29 13:05:08;;;;;;;;;13.20;13.20;;;;;;;;5292619;27;8890;-75
2021/12/29 13:07:43;;;;;;;;;7.00;7.00;;;;;;;;5259828;27;8862;-76
2021/12/29 13:10:22;;;;;;;;;8.60;6.80;;;;;;;;5295708;27;8778;-75
2021/12/29 13:12:58;;;;;;;;;7.00;7.00;;;;;;;;5262131;27;8766;-76
2021/12/29 13:15:30;;;;;;;;;6.60;6.20;;;;;;;;5296071;27;8794;-77
2021/12/29 13:18:02;;;;;;;;;16.20;16.20;;;;;;;;5279051;27;8928;-77
2021/12/29 13:20:33;;;;;;;;;9.00;7.00;;;;;;;;5295370;27;9501;-81
2021/12/29 13:23:15;;;;;;;;;7.00;7.00;;;;;;;;5295869;27;8766;-80
2021/12/29 13:26:05;;;;;;;;;12.20;9.20;;;;;;;;5280569;27;8791;-80
2021/12/29 13:28:37;;;;;;;;;8.00;8.00;;;;;;;;5278089;27;8794;-81
2021/12/29 13:31:26;;;;;;;;;13.40;12.80;;;;;;;;5295129;27;8806;-80
2021/12/29 13:33:57;;;;;;;;;1.00;1.00;;;;;;;;5278129;27;8974;-80
2021/12/29 13:36:28;;;;;;;;;17.20;16.00;;;;;;;;5277808;27;8806;-80
2021/12/29 13:39:00;;;;;;;;;18.20;13.00;;;;;;;;5261465;27;8886;-79
2021/12/29 13:41:35;;;;;;;;;10.00;10.00;;;;;;;;5295106;27;8824;-79
2021/12/29 13:44:07;;;;;;;;;15.60;15.00;;;;;;;;5294979;27;8801;-78
2021/12/29 13:46:56;;;;;;;;;10.20;9.80;;;;;;;;5280881;27;8771;-80
2021/12/29 13:49:27;;;;;;;;;23.50;22.50;;;;;;;;5312681;27;8842;-79
2021/12/29 13:51:58;;;;;;;;;21.75;21.50;;;;;;;;5261268;27;8782;-79
2021/12/29 13:54:47;;;;;;;;;16.40;16.40;;;;;;;;5280380;27;8762;-78
2021/12/29 13:57:19;;;;;;;;;18.80;16.80;;;;;;;;5278162;27;8774;-77
2021/12/29 13:59:50;;;;;;;;;19.60;18.80;;;;;;;;5277662;27;9489;-79
2021/12/29 14:02:21;;;;;;;;;13.25;10.75;;;;;;;;5260733;27;8859;-78
2021/12/29 14:04:52;;;;;;;;;18.25;17.50;;;;;;;;5260573;27;11403;-76
2021/12/29 14:07:23;;;;;;;;;23.40;20.80;;;;;;;;5294494;27;9485;-79
2021/12/29 14:09:57;;;;;;;;;32.50;32.00;;;;;;;;5312913;27;8789;-75
2021/12/29 14:12:33;;;;;;;;;50.25;43.25;;;;;;;;5294365;27;8798;-76
2021/12/29 14:15:06;;;;;;;;;68.00;53.75;;;;;;;;5295186;27;8889;-73
2021/12/29 14:17:38;;;;;;;;;48.00;45.00;;;;;;;;5277380;27;8884;-76
2021/12/29 14:20:11;;;;;;;;;31.75;31.25;;;;;;;;5293337;27;8835;-73
2021/12/29 14:22:43;;;;;;;;;20.60;20.60;;;;;;;;5260400;27;8766;-77
2021/12/29 14:25:15;;;;;;;;;22.25;17.75;;;;;;;;5312341;27;9497;-77
2021/12/29 14:27:48;;;;;;;;;15.00;14.80;;;;;;;;5277509;27;8785;-75
2021/12/29 14:30:26;;;;;;;;;25.20;24.20;;;;;;;;5312072;27;9518;-81
2021/12/29 14:33:02;;;;;;;;;13.20;12.60;;;;;;;;5294689;27;8767;-76
2021/12/29 14:35:36;;;;;;;;;19.00;19.00;;;;;;;;5312589;27;8762;-81
2021/12/29 14:38:08;;;;;;;;;20.60;19.40;;;;;;;;5293840;27;8766;-76
2021/12/29 14:40:39;;;;;;;;;21.00;20.60;;;;;;;;5276717;27;8778;-75
2021/12/29 14:43:16;;;;;;;;;8.60;7.00;;;;;;;;5276673;27;8759;-76
2021/12/29 14:45:52;;;;;;;;;11.40;10.00;;;;;;;;5293743;27;8786;-77
2021/12/29 14:48:23;;;;;;;;;20.00;19.00;;;;;;;;5259969;27;8888;-80
2021/12/29 14:50:55;;;;;;;;;21.20;19.80;;;;;;;;5259812;27;8806;-80
2021/12/29 14:53:29;;;;;;;;;16.00;16.00;;;;;;;;5259846;27;8803;-81
2021/12/29 14:56:10;;;;;;;;;15.80;15.20;;;;;;;;5276607;27;8908;-81
2021/12/29 14:59:09;;;;;;;;;15.40;14.60;;;;;;;;5294104;27;8866;-77
2021/12/29 15:01:40;;;;;;;;;7.80;7.00;;;;;;;;5277368;27;8778;-79
2021/12/29 15:04:11;;;;;;;;;14.50;14.50;;;;;;;;5259996;27;8838;-76
2021/12/29 15:06:42;;;;;;;;;10.75;9.00;;;;;;;;5260434;27;11564;-83
2021/12/29 15:09:12;;;;;;;;;10.00;10.00;;;;;;;;5259651;27;8876;-82
2021/12/29 15:11:46;;;;;;;;;14.50;14.00;;;;;;;;5259372;27;8794;-84
2021/12/29 15:14:21;;;;;;;;;24.60;22.80;;;;;;;;5277850;27;8770;-84
2021/12/29 15:16:54;;;;;;;;;19.80;17.60;;;;;;;;5264757;27;8781;-84
2021/12/29 15:19:25;;;;;;;;;13.80;13.40;;;;;;;;5298013;27;8762;-77
2021/12/29 15:21:57;;;;;;;;;14.60;14.60;;;;;;;;5260145;27;8790;-77
2021/12/29 15:24:28;;;;;;;;;18.00;18.00;;;;;;;;5278714;27;8774;-82
2021/12/29 15:26:58;;;;;;;;;10.50;10.50;;;;;;;;5299114;27;8831;-84
2021/12/29 15:29:47;;;;;;;;;17.60;17.60;;;;;;;;5281716;27;9593;-80
2021/12/29 15:32:18;;;;;;;;;7.00;5.00;;;;;;;;5315145;27;8901;-80
2021/12/29 15:34:51;;;;;;;;;23.20;20.00;;;;;;;;5268115;27;8833;-83
2021/12/29 15:37:22;;;;;;;;;17.20;15.80;;;;;;;;5293510;27;8771;-76
2021/12/29 15:39:53;;;;;;;;;14.00;14.00;;;;;;;;5292750;27;9536;-80
2021/12/29 15:42:24;;;;;;;;;14.00;13.00;;;;;;;;5293162;27;8818;-75